Valkenburg, Netherlands

9:15 PM CEST on October 20, 2014 (GMT +0200)
Zusterhof Leiden | Change Station
CLOSE
Current Station
Personal Weather Station
Location: Leiden, ZH
Elevation: 0 ft
Nearby Weather Stations

Elev 0 ft 52.15 °N, 4.49 °E | Updated 34 seconds ago

Clear
Clear
60.3 °F
Feels Like 60.3 °F
N
2.2
Wind Variable Wind from WNW
Gusts 3.1 mph

Today
High -- | Low -- °F
--% Chance of Precip.
Yesterday
High -- | Low -- °F
Precip. -- in
8:15 AM 6:37 PM
Waning Crescent, 9% visible
Pressure 29.92 in
Visibility 6.2 miles
Clouds
Dew Point 53 °F
Humidity 77%
Rainfall 0.00 in
Snow Depth Not available.
UV Not available.
Pollen Not available.
Air Quality Not available.
Flu Activity Not available.
METAR EHRD 201855Z AUTO 23011KT 190V260 9999 NSC 15/12 Q1013 NOSIG

More Conditions Fewer Conditions

Pressure 29.92 in
Visibility 6.2 miles
Clouds
Dew Point 53 °F
Humidity 77%
Rainfall 0.00 in
Snow Depth Not available.
UV Not available.
Pollen Not available.
Air Quality Not available.
Flu Activity Not available.
METAR EHRD 201855Z AUTO 23011KT 190V260 9999 NSC 15/12 Q1013 NOSIG

More Conditions Fewer Conditions

10-Day Weather Forecast

Almanac

Astronomy

Oct. 20, 2014 Rise Set
Actual Time 8:15 AM CEST 6:37 PM CEST
Civil Twilight 7:41 AM CEST 7:12 PM CEST
Nautical Twilight 7:01 AM CEST 7:51 PM CEST
Astronomical Twilight 6:22 AM CEST 8:30 PM CEST
Moon 4:24 AM CEST 5:13 PM CEST
Length of Visible Light 11h 30m
Length of Day
10h 21m
Tomorrow will be 3m 53s shorter.
Waning Crescent, 9% of the Moon is Illuminated
Today
Waning Crescent
Oct 23
New
Oct 30
First Quarter
Nov 6
Full
Nov 14
Last Quarter

Today's Extremes

Country Highs Country Lows

Community

WunderPhotos

Upload Photos

1,763,468 photos uploaded!

WunderBlogs® & News

By Dr. Jeff Masters
Director of Meteorology, Weather Underground
By Kari Strenfel
Meteorologist, Weather Underground
By Christopher C. Burt
Weather Historian, Weather Underground
October 20, 2014
October 20, 2014
October 20, 2014

Nearby

Snow Depth

Not available.

Earthquake Activity

City Distance Mag. Time & Date
No recent earthquake activity has been reported nearby.
Minimum magnitude displayed is 2.5.

Coastal Water Temperatures

Place Temperature
No Stations Reporting

Nearby Weather Stations